This is the latest recevied weather packets stored in our database for station/object HK4LRM-13. If no packets are shown the sender has not sent any weather packets the latest 10 day(s).
| Time | Temp. | Humidity | Pressure | Rain* | Wind** | Luminosity | Snow |
|---|---|---|---|---|---|---|---|
| 1787507636 | 26.11° C | 64% | 1010 hPa | 0 mm | - | - | - |
| 1787507095 | 26.11° C | 64% | 1010 hPa | 0 mm | - | - | - |
| 1787506555 | 26.11° C | 62% | 1011 hPa | 0 mm | - | - | - |
| 1787506014 | 26.11° C | 59% | 1011 hPa | 0 mm | - | - | - |
| 1787505474 | 26.11° C | 58% | 1011 hPa | 0 mm | - | - | - |
| 1787504934 | 26.11° C | 58% | 1011 hPa | 0 mm | - | - | - |
| 1787504393 | 26.67° C | 57% | 1011 hPa | 0 mm | - | - | - |
| 1787503853 | 26.67° C | 57% | 1011 hPa | 0 mm | - | - | - |
| 1787503312 | 26.67° C | 57% | 1012 hPa | 0 mm | - | - | - |
| 1787502772 | 26.67° C | 57% | 1012 hPa | 0 mm | - | - | - |
| 1787502231 | 27.22° C | 56% | 1013 hPa | 0 mm | - | - | - |
| 1787501691 | 27.78° C | 55% | 1013 hPa | 0 mm | - | - | - |
| 1787501151 | 24.44° C | 57% | 1013 hPa | 0 mm | - | - | - |
| 1787500610 | 24.44° C | 57% | 1013 hPa | 0 mm | - | - | - |
| 1787500070 | 24.44° C | 57% | 1013 hPa | 0 mm | - | - | - |
| 1787499529 | 23.89° C | 61% | 1013 hPa | 0 mm | - | - | - |
| 1787498989 | 23.89° C | 61% | 1014 hPa | 0 mm | - | - | - |
| 1787498448 | 23.89° C | 61% | 1014 hPa | 0 mm | - | - | - |
| 1787497908 | 23.89° C | 61% | 1014 hPa | 0 mm | - | - | - |
| 1787497367 | 23.33° C | 64% | 1014 hPa | 0 mm | - | - | - |
| 1787496827 | 23.33° C | 64% | 1014 hPa | 0 mm | - | - | - |
| 1787496286 | 22.78° C | 66% | 1014 hPa | 0 mm | - | - | - |
| 1787495746 | 21.67° C | 69% | 1014 hPa | 0 mm | - | - | - |
| 1787495205 | 21.67° C | 69% | 1015 hPa | 0 mm | - | - | - |
| 1787494665 | 21.67° C | 69% | 1015 hPa | 0 mm | - | - | - |
* Rain latest hour (hover to see other rain measurements)
** Current wind speed in m/s (hover to see current wind gust speed)